sensor_id;sensor_type;location;lat;lon;timestamp;pressure;altitude;pressure_sealevel;temperature;humidity
26711;BME280;18311;52.754;18.118;2023-01-29T00:01:14;101475.35;;;11.44;42.85
26711;BME280;18311;52.754;18.118;2023-01-29T00:03:44;101481.91;;;11.05;43.45
26711;BME280;18311;52.754;18.118;2023-01-29T00:06:15;101475.41;;;11.97;41.72
26711;BME280;18311;52.754;18.118;2023-01-29T00:08:47;101468.63;;;12.12;41.30
26711;BME280;18311;52.754;18.118;2023-01-29T00:11:18;101469.17;;;11.13;42.55
26711;BME280;18311;52.754;18.118;2023-01-29T00:13:50;101468.27;;;10.53;43.42
26711;BME280;18311;52.754;18.118;2023-01-29T00:16:21;101471.30;;;11.30;42.57
26711;BME280;18311;52.754;18.118;2023-01-29T00:18:55;101477.86;;;12.03;41.65
26711;BME280;18311;52.754;18.118;2023-01-29T00:21:26;101467.75;;;11.30;41.82
26711;BME280;18311;52.754;18.118;2023-01-29T00:23:58;101465.58;;;11.43;41.74
26711;BME280;18311;52.754;18.118;2023-01-29T00:26:29;101453.31;;;11.89;41.46
26711;BME280;18311;52.754;18.118;2023-01-29T00:29:00;101435.62;;;11.30;42.03
26711;BME280;18311;52.754;18.118;2023-01-29T00:31:31;101429.19;;;11.36;41.91
26711;BME280;18311;52.754;18.118;2023-01-29T00:34:02;101424.27;;;11.22;42.41
26711;BME280;18311;52.754;18.118;2023-01-29T00:36:34;101441.98;;;10.38;43.56
26711;BME280;18311;52.754;18.118;2023-01-29T00:39:05;101431.56;;;10.88;42.59
26711;BME280;18311;52.754;18.118;2023-01-29T00:41:37;101428.44;;;10.74;42.77
26711;BME280;18311;52.754;18.118;2023-01-29T00:44:26;101417.00;;;10.05;44.29
26711;BME280;18311;52.754;18.118;2023-01-29T00:47:14;101416.50;;;10.56;43.26
26711;BME280;18311;52.754;18.118;2023-01-29T00:50:05;101419.13;;;10.57;43.33
26711;BME280;18311;52.754;18.118;2023-01-29T00:52:36;101419.21;;;10.54;43.27
26711;BME280;18311;52.754;18.118;2023-01-29T00:55:09;101408.93;;;10.70;43.06
26711;BME280;18311;52.754;18.118;2023-01-29T00:57:40;101412.75;;;10.62;42.50
26711;BME280;18311;52.754;18.118;2023-01-29T01:00:13;101412.78;;;11.46;41.56
26711;BME280;18311;52.754;18.118;2023-01-29T01:02:45;101413.87;;;11.12;42.16
26711;BME280;18311;52.754;18.118;2023-01-29T01:05:35;101406.59;;;11.71;41.21
26711;BME280;18311;52.754;18.118;2023-01-29T01:08:07;101411.14;;;11.14;41.29
26711;BME280;18311;52.754;18.118;2023-01-29T01:10:40;101416.78;;;10.76;42.79
26711;BME280;18311;52.754;18.118;2023-01-29T01:13:11;101427.05;;;11.47;41.65
26711;BME280;18311;52.754;18.118;2023-01-29T01:15:42;101425.95;;;11.52;41.35
26711;BME280;18311;52.754;18.118;2023-01-29T01:18:13;101431.08;;;11.60;41.19
26711;BME280;18311;52.754;18.118;2023-01-29T01:20:44;101431.67;;;11.68;41.23
26711;BME280;18311;52.754;18.118;2023-01-29T01:23:18;101426.91;;;11.23;41.85
26711;BME280;18311;52.754;18.118;2023-01-29T01:25:48;101427.20;;;11.14;42.33
26711;BME280;18311;52.754;18.118;2023-01-29T01:28:21;101424.27;;;11.22;41.92
26711;BME280;18311;52.754;18.118;2023-01-29T01:30:53;101421.11;;;10.81;42.82
26711;BME280;18311;52.754;18.118;2023-01-29T01:33:23;101420.82;;;10.60;43.07
26711;BME280;18311;52.754;18.118;2023-01-29T01:35:54;101426.13;;;10.91;42.19
26711;BME280;18311;52.754;18.118;2023-01-29T01:38:25;101414.38;;;10.36;43.44
26711;BME280;18311;52.754;18.118;2023-01-29T01:40:55;101414.69;;;10.86;42.82
26711;BME280;18311;52.754;18.118;2023-01-29T01:43:26;101417.35;;;11.96;40.87
26711;BME280;18311;52.754;18.118;2023-01-29T01:45:57;101424.09;;;11.55;41.13
26711;BME280;18311;52.754;18.118;2023-01-29T01:48:28;101421.16;;;11.07;42.16
26711;BME280;18311;52.754;18.118;2023-01-29T01:51:02;101423.42;;;10.32;43.74
26711;BME280;18311;52.754;18.118;2023-01-29T01:53:42;101422.95;;;10.49;42.70
26711;BME280;18311;52.754;18.118;2023-01-29T01:56:23;101420.90;;;11.17;42.07
26711;BME280;18311;52.754;18.118;2023-01-29T01:58:54;101416.58;;;10.83;42.52
26711;BME280;18311;52.754;18.118;2023-01-29T02:01:26;101430.27;;;11.02;42.39
26711;BME280;18311;52.754;18.118;2023-01-29T02:04:04;101431.57;;;11.98;40.77
26711;BME280;18311;52.754;18.118;2023-01-29T02:06:55;101423.78;;;10.81;42.71
26711;BME280;18311;52.754;18.118;2023-01-29T02:10:07;101434.55;;;11.07;42.40
26711;BME280;18311;52.754;18.118;2023-01-29T02:12:38;101425.00;;;12.07;40.51
26711;BME280;18311;52.754;18.118;2023-01-29T02:15:11;101433.16;;;11.77;41.03
26711;BME280;18311;52.754;18.118;2023-01-29T02:17:42;101424.05;;;11.29;41.66
26711;BME280;18311;52.754;18.118;2023-01-29T02:20:22;101436.33;;;9.81;44.43
26711;BME280;18311;52.754;18.118;2023-01-29T02:28:42;101426.41;;;11.65;41.18
26711;BME280;18311;52.754;18.118;2023-01-29T02:37:02;101414.16;;;11.31;41.11
26711;BME280;18311;52.754;18.118;2023-01-29T02:39:27;101403.59;;;10.99;41.48
26711;BME280;18311;52.754;18.118;2023-01-29T02:42:00;101405.98;;;11.36;41.56
26711;BME280;18311;52.754;18.118;2023-01-29T02:44:41;101397.31;;;11.55;41.35
26711;BME280;18311;52.754;18.118;2023-01-29T02:50:16;101389.80;;;9.90;43.43
26711;BME280;18311;52.754;18.118;2023-01-29T02:52:58;101391.63;;;9.54;44.11
26711;BME280;18311;52.754;18.118;2023-01-29T02:58:19;101381.04;;;11.61;41.55
26711;BME280;18311;52.754;18.118;2023-01-29T03:00:46;101382.05;;;11.03;42.55
26711;BME280;18311;52.754;18.118;2023-01-29T03:03:20;101396.25;;;10.77;42.46
26711;BME280;18311;52.754;18.118;2023-01-29T03:06:04;101392.27;;;11.45;41.71
26711;BME280;18311;52.754;18.118;2023-01-29T03:08:38;101375.83;;;11.56;41.34
26711;BME280;18311;52.754;18.118;2023-01-29T03:11:15;101378.56;;;11.28;41.30
26711;BME280;18311;52.754;18.118;2023-01-29T03:16:40;101367.00;;;10.41;42.75
26711;BME280;18311;52.754;18.118;2023-01-29T03:19:38;101356.68;;;11.42;41.62
26711;BME280;18311;52.754;18.118;2023-01-29T03:21:59;101359.81;;;11.01;42.41
26711;BME280;18311;52.754;18.118;2023-01-29T03:27:46;101352.27;;;10.26;43.37
26711;BME280;18311;52.754;18.118;2023-01-29T03:30:37;101334.35;;;9.98;44.08
26711;BME280;18311;52.754;18.118;2023-01-29T03:33:28;101326.38;;;10.86;42.19
26711;BME280;18311;52.754;18.118;2023-01-29T03:36:04;101315.86;;;11.08;42.63
26711;BME280;18311;52.754;18.118;2023-01-29T03:38:34;101311.75;;;10.10;43.93
26711;BME280;18311;52.754;18.118;2023-01-29T03:41:17;101308.78;;;11.06;42.29
26711;BME280;18311;52.754;18.118;2023-01-29T03:43:57;101303.67;;;10.43;43.38
26711;BME280;18311;52.754;18.118;2023-01-29T03:46:39;101296.38;;;10.76;42.88
26711;BME280;18311;52.754;18.118;2023-01-29T03:49:35;101294.34;;;11.11;42.60
26711;BME280;18311;52.754;18.118;2023-01-29T03:58:04;101285.20;;;11.69;41.17
26711;BME280;18311;52.754;18.118;2023-01-29T04:00:49;101290.40;;;10.68;42.41
26711;BME280;18311;52.754;18.118;2023-01-29T04:03:34;101287.95;;;10.89;43.01
26711;BME280;18311;52.754;18.118;2023-01-29T04:06:17;101290.27;;;11.00;42.28
26711;BME280;18311;52.754;18.118;2023-01-29T04:08:48;101283.23;;;9.79;44.58
26711;BME280;18311;52.754;18.118;2023-01-29T04:11:19;101278.57;;;10.17;43.78
26711;BME280;18311;52.754;18.118;2023-01-29T04:13:51;101285.62;;;10.50;43.23
26711;BME280;18311;52.754;18.118;2023-01-29T04:16:39;101278.23;;;10.28;43.94
26711;BME280;18311;52.754;18.118;2023-01-29T04:19:05;101286.42;;;9.28;45.52
26711;BME280;18311;52.754;18.118;2023-01-29T04:21:36;101255.70;;;10.07;44.08
26711;BME280;18311;52.754;18.118;2023-01-29T04:24:07;101281.41;;;11.24;42.68
26711;BME280;18311;52.754;18.118;2023-01-29T04:26:49;101280.78;;;10.03;44.52
26711;BME280;18311;52.754;18.118;2023-01-29T04:29:45;101279.81;;;9.74;44.79
26711;BME280;18311;52.754;18.118;2023-01-29T04:32:14;101281.34;;;10.72;43.25
26711;BME280;18311;52.754;18.118;2023-01-29T04:37:34;101265.39;;;10.41;44.27
26711;BME280;18311;52.754;18.118;2023-01-29T04:40:10;101258.14;;;11.51;41.80
26711;BME280;18311;52.754;18.118;2023-01-29T04:42:48;101265.23;;;10.74;43.49
26711;BME280;18311;52.754;18.118;2023-01-29T04:45:31;101263.95;;;11.12;43.10
26711;BME280;18311;52.754;18.118;2023-01-29T04:48:31;101246.53;;;9.55;45.72
26711;BME280;18311;52.754;18.118;2023-01-29T04:58:50;101229.44;;;11.55;42.64
26711;BME280;18311;52.754;18.118;2023-01-29T05:01:22;101229.44;;;11.55;42.32
26711;BME280;18311;52.754;18.118;2023-01-29T05:03:55;101230.77;;;11.67;42.44
26711;BME280;18311;52.754;18.118;2023-01-29T05:06:29;101234.61;;;11.09;42.99
26711;BME280;18311;52.754;18.118;2023-01-29T05:09:01;101224.27;;;10.99;43.51
26711;BME280;18311;52.754;18.118;2023-01-29T05:11:33;101224.63;;;10.34;44.62
26711;BME280;18311;52.754;18.118;2023-01-29T05:14:06;101211.65;;;12.01;42.60
26711;BME280;18311;52.754;18.118;2023-01-29T05:16:45;101207.61;;;11.66;43.00
26711;BME280;18311;52.754;18.118;2023-01-29T05:19:13;101212.72;;;11.72;42.71
26711;BME280;18311;52.754;18.118;2023-01-29T05:21:46;101203.16;;;11.41;43.43
26711;BME280;18311;52.754;18.118;2023-01-29T05:24:22;101218.01;;;11.00;44.94
26711;BME280;18311;52.754;18.118;2023-01-29T05:26:54;101207.05;;;11.32;44.55
26711;BME280;18311;52.754;18.118;2023-01-29T05:29:45;101213.95;;;10.61;45.33
26711;BME280;18311;52.754;18.118;2023-01-29T05:32:16;101195.25;;;12.09;43.25
26711;BME280;18311;52.754;18.118;2023-01-29T05:34:46;101203.92;;;11.45;43.83
26711;BME280;18311;52.754;18.118;2023-01-29T05:37:17;101201.14;;;11.71;43.31
26711;BME280;18311;52.754;18.118;2023-01-29T05:39:47;101215.99;;;10.80;45.68
26711;BME280;18311;52.754;18.118;2023-01-29T05:42:19;101192.30;;;11.93;43.60
26711;BME280;18311;52.754;18.118;2023-01-29T05:44:50;101191.29;;;11.23;44.56
26711;BME280;18311;52.754;18.118;2023-01-29T05:47:22;101184.52;;;11.62;44.35
26711;BME280;18311;52.754;18.118;2023-01-29T05:49:52;101191.06;;;11.78;43.91
26711;BME280;18311;52.754;18.118;2023-01-29T05:52:22;101206.42;;;10.72;45.75
26711;BME280;18311;52.754;18.118;2023-01-29T05:54:53;101200.95;;;11.52;45.16
26711;BME280;18311;52.754;18.118;2023-01-29T05:57:23;101219.55;;;11.07;45.46
26711;BME280;18311;52.754;18.118;2023-01-29T05:59:54;101212.80;;;10.42;47.21
26711;BME280;18311;52.754;18.118;2023-01-29T06:02:24;101219.59;;;10.22;47.84
26711;BME280;18311;52.754;18.118;2023-01-29T06:04:55;101215.88;;;10.28;49.30
26711;BME280;18311;52.754;18.118;2023-01-29T06:07:26;101216.99;;;11.29;46.98
26711;BME280;18311;52.754;18.118;2023-01-29T06:09:56;101227.72;;;11.78;45.87
26711;BME280;18311;52.754;18.118;2023-01-29T06:12:27;101230.04;;;11.87;45.88
26711;BME280;18311;52.754;18.118;2023-01-29T06:14:57;101242.01;;;10.48;48.21
26711;BME280;18311;52.754;18.118;2023-01-29T06:17:28;101246.91;;;10.04;51.61
26711;BME280;18311;52.754;18.118;2023-01-29T06:19:59;101253.67;;;11.00;60.31
26711;BME280;18311;52.754;18.118;2023-01-29T06:22:31;101249.66;;;11.64;58.01
26711;BME280;18311;52.754;18.118;2023-01-29T06:25:02;101269.78;;;11.25;55.87
26711;BME280;18311;52.754;18.118;2023-01-29T06:27:33;101252.22;;;10.63;56.85
26711;BME280;18311;52.754;18.118;2023-01-29T06:30:05;101251.75;;;11.79;54.23
26711;BME280;18311;52.754;18.118;2023-01-29T06:32:35;101258.69;;;11.36;53.96
26711;BME280;18311;52.754;18.118;2023-01-29T06:35:07;101253.34;;;11.85;51.87
26711;BME280;18311;52.754;18.118;2023-01-29T06:37:38;101252.72;;;12.02;51.17
26711;BME280;18311;52.754;18.118;2023-01-29T06:40:10;101270.67;;;10.99;53.79
26711;BME280;18311;52.754;18.118;2023-01-29T06:42:41;101264.34;;;11.77;52.75
26711;BME280;18311;52.754;18.118;2023-01-29T06:45:14;101271.80;;;11.69;51.47
26711;BME280;18311;52.754;18.118;2023-01-29T06:47:44;101277.81;;;11.25;52.77
26711;BME280;18311;52.754;18.118;2023-01-29T06:50:15;101277.61;;;11.05;54.52
26711;BME280;18311;52.754;18.118;2023-01-29T06:52:46;101271.84;;;11.42;53.06
26711;BME280;18311;52.754;18.118;2023-01-29T06:55:17;101272.66;;;11.19;52.72
26711;BME280;18311;52.754;18.118;2023-01-29T06:57:47;101261.20;;;11.89;51.43
26711;BME280;18311;52.754;18.118;2023-01-29T07:00:18;101249.70;;;12.11;50.51
26711;BME280;18311;52.754;18.118;2023-01-29T07:02:49;101248.77;;;11.63;51.95
26711;BME280;18311;52.754;18.118;2023-01-29T07:05:20;101241.84;;;10.81;53.05
26711;BME280;18311;52.754;18.118;2023-01-29T07:07:50;101241.61;;;10.87;52.98
26711;BME280;18311;52.754;18.118;2023-01-29T07:10:21;101235.89;;;11.24;53.11
26711;BME280;18311;52.754;18.118;2023-01-29T07:12:51;101251.14;;;10.69;54.44
26711;BME280;18311;52.754;18.118;2023-01-29T07:15:23;101244.81;;;11.74;52.26
26711;BME280;18311;52.754;18.118;2023-01-29T07:18:01;101229.50;;;11.53;51.37
26711;BME280;18311;52.754;18.118;2023-01-29T07:20:32;101223.73;;;11.64;51.47
26711;BME280;18311;52.754;18.118;2023-01-29T07:23:03;101223.73;;;11.39;54.14
26711;BME280;18311;52.754;18.118;2023-01-29T07:25:34;101240.65;;;11.90;51.54
26711;BME280;18311;52.754;18.118;2023-01-29T07:28:05;101247.59;;;10.95;53.26
26711;BME280;18311;52.754;18.118;2023-01-29T07:30:35;101239.06;;;10.84;52.87
26711;BME280;18311;52.754;18.118;2023-01-29T07:33:07;101231.44;;;12.21;50.96
26711;BME280;18311;52.754;18.118;2023-01-29T07:35:40;101236.07;;;10.93;53.06
26711;BME280;18311;52.754;18.118;2023-01-29T07:38:11;101224.60;;;11.65;51.71
26711;BME280;18311;52.754;18.118;2023-01-29T07:40:42;101220.00;;;11.94;49.88
26711;BME280;18311;52.754;18.118;2023-01-29T07:43:13;101218.62;;;11.33;53.16
26711;BME280;18311;52.754;18.118;2023-01-29T07:45:44;101215.20;;;11.53;51.90
26711;BME280;18311;52.754;18.118;2023-01-29T07:48:15;101227.04;;;10.42;55.14
26711;BME280;18311;52.754;18.118;2023-01-29T07:50:53;101219.92;;;10.96;54.07
26711;BME280;18311;52.754;18.118;2023-01-29T07:53:20;101217.09;;;12.44;50.10
26711;BME280;18311;52.754;18.118;2023-01-29T07:55:51;101222.41;;;11.76;50.85
26711;BME280;18311;52.754;18.118;2023-01-29T07:58:21;101219.80;;;11.98;50.21
26711;BME280;18311;52.754;18.118;2023-01-29T08:00:52;101221.41;;;11.79;50.56
26711;BME280;18311;52.754;18.118;2023-01-29T08:03:22;101224.09;;;11.55;51.17
26711;BME280;18311;52.754;18.118;2023-01-29T08:05:53;101238.09;;;12.11;50.59
26711;BME280;18311;52.754;18.118;2023-01-29T08:08:23;101235.38;;;12.56;49.62
26711;BME280;18311;52.754;18.118;2023-01-29T08:10:54;101240.92;;;12.30;49.92
26711;BME280;18311;52.754;18.118;2023-01-29T08:13:25;101238.13;;;12.33;49.17
26711;BME280;18311;52.754;18.118;2023-01-29T08:16:00;101234.22;;;12.63;48.64
26711;BME280;18311;52.754;18.118;2023-01-29T08:18:31;101231.88;;;12.98;48.26
26711;BME280;18311;52.754;18.118;2023-01-29T08:21:02;101229.77;;;12.40;49.08
26711;BME280;18311;52.754;18.118;2023-01-29T08:23:33;101230.66;;;11.95;50.33
26711;BME280;18311;52.754;18.118;2023-01-29T08:26:03;101229.36;;;12.51;49.27
26711;BME280;18311;52.754;18.118;2023-01-29T08:28:34;101218.54;;;11.60;51.08
26711;BME280;18311;52.754;18.118;2023-01-29T08:31:12;101224.94;;;11.05;53.52
26711;BME280;18311;52.754;18.118;2023-01-29T08:33:42;101213.27;;;12.05;50.78
26711;BME280;18311;52.754;18.118;2023-01-29T08:36:13;101204.47;;;12.02;50.75
26711;BME280;18311;52.754;18.118;2023-01-29T08:38:44;101217.34;;;10.93;54.01
26711;BME280;18311;52.754;18.118;2023-01-29T08:41:15;101213.70;;;11.21;53.58
26711;BME280;18311;52.754;18.118;2023-01-29T08:43:45;101200.97;;;11.76;52.16
26711;BME280;18311;52.754;18.118;2023-01-29T08:46:16;101199.11;;;11.29;53.57
26711;BME280;18311;52.754;18.118;2023-01-29T08:48:46;101177.86;;;11.00;53.71
26711;BME280;18311;52.754;18.118;2023-01-29T08:51:17;101176.88;;;12.22;51.54
26711;BME280;18311;52.754;18.118;2023-01-29T08:53:48;101173.94;;;12.28;51.17
26711;BME280;18311;52.754;18.118;2023-01-29T08:56:19;101177.42;;;12.30;50.02
26711;BME280;18311;52.754;18.118;2023-01-29T08:58:50;101188.64;;;10.15;55.78
26711;BME280;18311;52.754;18.118;2023-01-29T09:01:20;101179.25;;;11.60;51.88
26711;BME280;18311;52.754;18.118;2023-01-29T09:03:52;101180.05;;;11.13;53.73
26711;BME280;18311;52.754;18.118;2023-01-29T09:06:23;101167.50;;;11.39;53.16
26711;BME280;18311;52.754;18.118;2023-01-29T09:08:53;101161.52;;;11.07;55.04
26711;BME280;18311;52.754;18.118;2023-01-29T09:11:24;101174.23;;;11.75;53.92
26711;BME280;18311;52.754;18.118;2023-01-29T09:13:56;101180.02;;;10.88;55.10
26711;BME280;18311;52.754;18.118;2023-01-29T09:16:27;101184.64;;;11.10;56.14
26711;BME280;18311;52.754;18.118;2023-01-29T09:18:57;101196.23;;;12.95;49.88
26711;BME280;18311;52.754;18.118;2023-01-29T09:21:29;101191.06;;;12.02;51.95
26711;BME280;18311;52.754;18.118;2023-01-29T09:24:00;101184.14;;;11.73;54.56
26711;BME280;18311;52.754;18.118;2023-01-29T09:26:30;101184.97;;;11.26;52.57
26711;BME280;18311;52.754;18.118;2023-01-29T09:29:01;101190.92;;;12.28;51.56
26711;BME280;18311;52.754;18.118;2023-01-29T09:31:32;101190.15;;;11.05;53.67
26711;BME280;18311;52.754;18.118;2023-01-29T09:34:02;101185.98;;;12.40;51.09
26711;BME280;18311;52.754;18.118;2023-01-29T09:36:33;101190.55;;;12.38;50.24
26711;BME280;18311;52.754;18.118;2023-01-29T09:39:04;101187.47;;;12.03;51.57
26711;BME280;18311;52.754;18.118;2023-01-29T09:47:17;101188.25;;;12.28;51.86
26711;BME280;18311;52.754;18.118;2023-01-29T09:49:54;101183.81;;;13.13;48.96
26711;BME280;18311;52.754;18.118;2023-01-29T09:52:26;101180.89;;;12.34;51.32
26711;BME280;18311;52.754;18.118;2023-01-29T09:55:14;101169.67;;;12.66;50.07
26711;BME280;18311;52.754;18.118;2023-01-29T09:57:50;101165.77;;;12.53;51.16
26711;BME280;18311;52.754;18.118;2023-01-29T10:00:36;101164.34;;;13.08;50.23
26711;BME280;18311;52.754;18.118;2023-01-29T10:05:43;101168.98;;;11.71;52.59
26711;BME280;18311;52.754;18.118;2023-01-29T10:08:23;101163.30;;;11.32;55.00
26711;BME280;18311;52.754;18.118;2023-01-29T10:10:59;101170.03;;;12.15;53.19
26711;BME280;18311;52.754;18.118;2023-01-29T10:19:21;101164.20;;;10.82;56.27
26711;BME280;18311;52.754;18.118;2023-01-29T10:24:59;101139.08;;;12.28;52.18
26711;BME280;18311;52.754;18.118;2023-01-29T10:27:35;101137.34;;;10.85;61.04
26711;BME280;18311;52.754;18.118;2023-01-29T10:30:17;101132.97;;;12.24;54.23
26711;BME280;18311;52.754;18.118;2023-01-29T10:32:40;101138.42;;;12.65;51.89
26711;BME280;18311;52.754;18.118;2023-01-29T10:37:52;101105.62;;;12.16;52.77
26711;BME280;18311;52.754;18.118;2023-01-29T10:40:38;101116.31;;;11.70;55.68
26711;BME280;18311;52.754;18.118;2023-01-29T10:43:16;101108.37;;;11.45;56.69
26711;BME280;18311;52.754;18.118;2023-01-29T10:48:56;101114.02;;;12.29;52.33
26711;BME280;18311;52.754;18.118;2023-01-29T11:02:18;101075.36;;;11.21;59.13
26711;BME280;18311;52.754;18.118;2023-01-29T11:04:52;101069.39;;;12.06;56.24
26711;BME280;18311;52.754;18.118;2023-01-29T11:07:29;101065.75;;;12.70;53.04
26711;BME280;18311;52.754;18.118;2023-01-29T11:10:03;101068.47;;;13.10;51.42
26711;BME280;18311;52.754;18.118;2023-01-29T11:12:34;101072.38;;;11.52;57.21
26711;BME280;18311;52.754;18.118;2023-01-29T11:15:22;101059.48;;;13.11;52.44
26711;BME280;18311;52.754;18.118;2023-01-29T11:21:01;101054.88;;;12.53;53.09
26711;BME280;18311;52.754;18.118;2023-01-29T11:23:33;101050.56;;;13.29;51.02
26711;BME280;18311;52.754;18.118;2023-01-29T11:26:05;101030.16;;;12.46;52.46
26711;BME280;18311;52.754;18.118;2023-01-29T11:28:47;101035.73;;;12.62;52.17
26711;BME280;18311;52.754;18.118;2023-01-29T11:33:49;101031.18;;;12.01;53.98
26711;BME280;18311;52.754;18.118;2023-01-29T11:36:35;101027.36;;;12.06;54.73
26711;BME280;18311;52.754;18.118;2023-01-29T11:39:14;101029.34;;;12.64;53.72
26711;BME280;18311;52.754;18.118;2023-01-29T11:41:47;101030.91;;;12.07;54.26
26711;BME280;18311;52.754;18.118;2023-01-29T11:47:20;101011.81;;;13.16;52.90
26711;BME280;18311;52.754;18.118;2023-01-29T11:50:00;101003.92;;;12.12;52.97
26711;BME280;18311;52.754;18.118;2023-01-29T11:52:35;100993.91;;;12.56;54.36
26711;BME280;18311;52.754;18.118;2023-01-29T11:55:29;101004.74;;;12.55;54.07
26711;BME280;18311;52.754;18.118;2023-01-29T11:58:17;101005.72;;;12.73;54.08
26711;BME280;18311;52.754;18.118;2023-01-29T12:00:51;101006.75;;;11.19;57.06
26711;BME280;18311;52.754;18.118;2023-01-29T12:03:32;100996.39;;;10.86;59.16
26711;BME280;18311;52.754;18.118;2023-01-29T12:06:06;100985.30;;;12.50;56.13
26711;BME280;18311;52.754;18.118;2023-01-29T12:08:39;100973.73;;;12.47;54.57
26711;BME280;18311;52.754;18.118;2023-01-29T12:11:34;100986.69;;;12.17;54.82
26711;BME280;18311;52.754;18.118;2023-01-29T12:14:20;100986.35;;;11.38;61.60
26711;BME280;18311;52.754;18.118;2023-01-29T12:16:55;100960.80;;;12.37;55.77
26711;BME280;18311;52.754;18.118;2023-01-29T12:19:45;100976.70;;;11.34;56.80
26711;BME280;18311;52.754;18.118;2023-01-29T12:22:37;100986.30;;;12.06;59.75
26711;BME280;18311;52.754;18.118;2023-01-29T12:25:08;100992.44;;;11.86;60.36
26711;BME280;18311;52.754;18.118;2023-01-29T12:30:40;100990.19;;;12.40;57.76
26711;BME280;18311;52.754;18.118;2023-01-29T12:33:32;100959.34;;;12.30;58.60
26711;BME280;18311;52.754;18.118;2023-01-29T12:36:14;100962.08;;;12.28;57.61
26711;BME280;18311;52.754;18.118;2023-01-29T12:38:45;100960.30;;;12.28;59.27
26711;BME280;18311;52.754;18.118;2023-01-29T12:41:35;100957.09;;;11.56;59.01
26711;BME280;18311;52.754;18.118;2023-01-29T12:47:07;100946.59;;;12.14;58.70
26711;BME280;18311;52.754;18.118;2023-01-29T12:49:39;100943.98;;;11.92;55.45
26711;BME280;18311;52.754;18.118;2023-01-29T12:55:05;100943.30;;;12.88;55.48
26711;BME280;18311;52.754;18.118;2023-01-29T12:57:53;100949.56;;;11.86;55.35
26711;BME280;18311;52.754;18.118;2023-01-29T13:00:25;100958.89;;;12.99;53.53
26711;BME280;18311;52.754;18.118;2023-01-29T13:03:03;100956.54;;;11.02;63.27
26711;BME280;18311;52.754;18.118;2023-01-29T13:05:38;100955.94;;;11.39;57.70
26711;BME280;18311;52.754;18.118;2023-01-29T13:10:51;100949.85;;;11.58;61.91
26711;BME280;18311;52.754;18.118;2023-01-29T13:13:34;100956.24;;;11.76;61.95
26711;BME280;18311;52.754;18.118;2023-01-29T13:16:10;100944.52;;;12.21;59.81
26711;BME280;18311;52.754;18.118;2023-01-29T13:21:28;100927.83;;;12.14;59.32
26711;BME280;18311;52.754;18.118;2023-01-29T13:24:10;100927.38;;;12.64;57.09
26711;BME280;18311;52.754;18.118;2023-01-29T13:26:46;100922.30;;;11.76;61.49
26711;BME280;18311;52.754;18.118;2023-01-29T13:29:25;100918.05;;;11.70;61.12
26711;BME280;18311;52.754;18.118;2023-01-29T13:32:02;100912.41;;;12.19;58.95
26711;BME280;18311;52.754;18.118;2023-01-29T13:34:44;100916.24;;;12.14;57.45
26711;BME280;18311;52.754;18.118;2023-01-29T13:40:25;100930.91;;;12.46;56.06
26711;BME280;18311;52.754;18.118;2023-01-29T13:42:51;100918.05;;;11.93;57.20
26711;BME280;18311;52.754;18.118;2023-01-29T13:45:30;100917.45;;;12.85;57.25
26711;BME280;18311;52.754;18.118;2023-01-29T13:48:21;100913.99;;;12.44;56.16
26711;BME280;18311;52.754;18.118;2023-01-29T13:50:59;100907.20;;;11.96;56.37
26711;BME280;18311;52.754;18.118;2023-01-29T13:53:36;100920.55;;;11.75;60.57
26711;BME280;18311;52.754;18.118;2023-01-29T13:59:05;100913.43;;;12.56;56.75
26711;BME280;18311;52.754;18.118;2023-01-29T14:04:24;100908.49;;;12.47;56.36
26711;BME280;18311;52.754;18.118;2023-01-29T14:06:58;100898.37;;;11.94;59.40
26711;BME280;18311;52.754;18.118;2023-01-29T14:17:29;100903.09;;;12.28;57.10
26711;BME280;18311;52.754;18.118;2023-01-29T14:20:22;100900.77;;;12.00;57.33
26711;BME280;18311;52.754;18.118;2023-01-29T14:22:56;100904.87;;;11.22;58.48
26711;BME280;18311;52.754;18.118;2023-01-29T14:25:31;100915.92;;;12.01;59.92
26711;BME280;18311;52.754;18.118;2023-01-29T14:28:02;100929.39;;;10.89;62.51
26711;BME280;18311;52.754;18.118;2023-01-29T14:30:44;100919.46;;;12.01;59.84
26711;BME280;18311;52.754;18.118;2023-01-29T14:33:33;100914.33;;;11.75;57.96
26711;BME280;18311;52.754;18.118;2023-01-29T14:36:12;100916.91;;;11.98;56.46
26711;BME280;18311;52.754;18.118;2023-01-29T14:38:48;100917.67;;;12.62;54.29
26711;BME280;18311;52.754;18.118;2023-01-29T14:41:25;100901.13;;;12.71;53.85
26711;BME280;18311;52.754;18.118;2023-01-29T14:47:18;100905.64;;;11.90;59.00
26711;BME280;18311;52.754;18.118;2023-01-29T14:50:34;100884.39;;;11.85;57.39
26711;BME280;18311;52.754;18.118;2023-01-29T14:52:38;100894.05;;;12.31;54.67
26711;BME280;18311;52.754;18.118;2023-01-29T14:58:13;100885.97;;;12.89;55.37
26711;BME280;18311;52.754;18.118;2023-01-29T15:00:52;100891.36;;;11.69;57.01
26711;BME280;18311;52.754;18.118;2023-01-29T15:03:40;100901.45;;;11.18;62.29
26711;BME280;18311;52.754;18.118;2023-01-29T15:06:18;100901.27;;;12.68;55.64
26711;BME280;18311;52.754;18.118;2023-01-29T15:11:59;100904.48;;;12.37;58.46
26711;BME280;18311;52.754;18.118;2023-01-29T15:14:37;100896.61;;;11.93;55.21
26711;BME280;18311;52.754;18.118;2023-01-29T15:19:49;100889.25;;;10.89;60.89
26711;BME280;18311;52.754;18.118;2023-01-29T15:22:24;100883.04;;;11.75;62.70
26711;BME280;18311;52.754;18.118;2023-01-29T15:25:05;100878.52;;;12.18;56.92